Time;durP1;ratioP1;P1;durP2;ratioP2;P2;SDS_P1;SDS_P2;PMS_P1;PMS_P2;Temp;Humidity;BMP_temperature;BMP_pressure;BME280_temperature;BME280_humidity;BME280_pressure;Samples;Min_cycle;Max_cycle;Signal;HPM_P1;HPM_P2
2022/10/29 00:01:11;;;;;;;19.30;9.60;;;;;;;15.67;62.20;100723.78;4943209;28;97048;-77
2022/10/29 00:03:37;;;;;;;18.88;9.25;;;;;;;15.68;62.54;100729.03;4946259;28;101628;-78
2022/10/29 00:06:05;;;;;;;16.83;9.00;;;;;;;15.63;62.66;100723.06;4954212;28;97626;-83
2022/10/29 00:08:33;;;;;;;15.52;9.18;;;;;;;15.46;62.73;100701.88;4954622;28;97042;-77
2022/10/29 00:11:19;;;;;;;17.00;9.00;;;;;;;15.51;62.74;100708.66;4970262;28;97130;-78
2022/10/29 00:13:45;;;;;;;14.50;8.52;;;;;;;15.57;62.68;100729.50;4939303;28;101798;-78
2022/10/29 00:16:16;;;;;;;21.33;9.13;;;;;;;15.56;62.90;100738.41;4970117;28;97602;-79
2022/10/29 00:18:43;;;;;;;19.50;8.27;;;;;;;15.56;62.98;100740.16;4957226;28;96873;-78
2022/10/29 00:21:14;;;;;;;15.02;9.27;;;;;;;15.54;63.04;100742.03;4920159;28;96948;-77
2022/10/29 00:23:39;;;;;;;14.88;8.57;;;;;;;15.50;62.98;100740.44;4938296;28;101939;-77
2022/10/29 00:26:05;;;;;;;20.80;10.10;;;;;;;15.52;62.90;100744.75;4953202;28;97358;-77
2022/10/29 00:28:31;;;;;;;13.57;8.57;;;;;;;15.51;62.99;100732.47;4936323;28;97477;-78
2022/10/29 00:31:02;;;;;;;18.38;9.30;;;;;;;15.51;62.96;100732.47;4948621;28;97695;-78
2022/10/29 00:33:27;;;;;;;14.93;8.52;;;;;;;15.55;62.74;100727.88;4938361;28;97899;-77
2022/10/29 00:35:55;;;;;;;17.60;9.52;;;;;;;15.49;63.27;100728.16;4931486;28;101284;-77
2022/10/29 00:38:21;;;;;;;14.50;8.95;;;;;;;15.48;63.03;100723.81;4913854;28;96992;-78
2022/10/29 00:40:47;;;;;;;15.63;8.95;;;;;;;15.48;63.37;100721.16;4951552;28;97528;-78
2022/10/29 00:43:13;;;;;;;17.30;8.65;;;;;;;15.45;63.25;100710.75;4925508;28;101791;-78
2022/10/29 00:45:50;;;;;;;13.88;9.07;;;;;;;15.46;63.50;100723.03;4967821;28;97515;-77
2022/10/29 00:48:15;;;;;;;19.20;9.32;;;;;;;15.38;63.49;100700.41;4971893;28;97110;-77
2022/10/29 00:50:42;;;;;;;14.55;8.15;;;;;;;15.46;63.35;100709.78;4937098;28;96941;-77
2022/10/29 00:53:07;;;;;;;20.23;8.90;;;;;;;15.47;63.46;100706.22;4974459;28;101740;-79
2022/10/29 00:55:33;;;;;;;13.82;7.45;;;;;;;15.47;63.38;100708.84;4934415;28;101405;-79
2022/10/29 00:57:59;;;;;;;13.55;7.75;;;;;;;15.49;63.75;100709.66;4933058;28;98128;-78
2022/10/29 01:00:25;;;;;;;12.95;8.15;;;;;;;15.46;63.87;100718.59;4915785;28;96919;-78
2022/10/29 01:02:50;;;;;;;15.32;7.82;;;;;;;15.45;63.62;100711.59;4945261;28;101773;-77
2022/10/29 01:05:19;;;;;;;13.55;7.55;;;;;;;15.48;63.71;100719.38;4951638;28;101663;-77
2022/10/29 01:07:45;;;;;;;12.65;7.63;;;;;;;15.29;63.93;100686.78;4940244;28;97532;-77
2022/10/29 01:10:11;;;;;;;12.18;7.85;;;;;;;15.47;64.12;100730.03;4951003;28;97319;-80
2022/10/29 01:13:26;;;;;;;14.25;7.93;;;;;;;15.47;64.15;100724.72;4952942;28;101513;-78
2022/10/29 01:15:59;;;;;;;16.55;8.57;;;;;;;15.32;64.40;100708.66;4924724;28;101388;-76
2022/10/29 01:18:37;;;;;;;15.77;8.85;;;;;;;15.46;64.07;100723.03;4936100;28;98933;-77
2022/10/29 01:21:27;;;;;;;12.75;7.57;;;;;;;15.45;64.47;100723.97;4950875;28;97473;-81
2022/10/29 01:24:19;;;;;;;13.80;7.80;;;;;;;15.46;64.46;100725.66;4949777;28;102000;-78
2022/10/29 01:27:12;;;;;;;17.23;8.65;;;;;;;15.46;64.45;100717.72;4954092;28;101310;-78
2022/10/29 01:30:05;;;;;;;13.05;7.88;;;;;;;15.44;64.82;100719.59;4951047;28;96713;-77
2022/10/29 01:32:49;;;;;;;11.43;6.57;;;;;;;15.42;64.73;100711.75;4936220;28;97167;-77
2022/10/29 01:35:20;;;;;;;15.88;7.70;;;;;;;15.45;64.82;100714.25;4939525;28;101762;-77
2022/10/29 01:37:52;;;;;;;15.38;8.55;;;;;;;15.35;64.97;100705.88;4955575;28;97382;-77
2022/10/29 01:40:20;;;;;;;;;;;;;;;15.45;64.62;100710.75;4938594;28;97349;-78
2022/10/29 01:43:08;;;;;;;13.88;7.72;;;;;;;15.32;64.96;100690.16;4940862;28;97310;-78
2022/10/29 01:45:57;;;;;;;13.77;8.05;;;;;;;15.47;65.22;100715.00;4952305;28;98777;-78
2022/10/29 01:48:28;;;;;;;15.23;8.23;;;;;;;15.47;65.01;100722.94;4940752;28;101477;-77
2022/10/29 01:50:55;;;;;;;14.30;8.25;;;;;;;15.33;65.42;100702.47;4954722;28;96725;-77
2022/10/29 01:53:20;;;;;;;12.90;7.07;;;;;;;15.45;65.35;100721.31;4967536;28;97378;-77
2022/10/29 01:55:46;;;;;;;13.63;7.72;;;;;;;15.45;65.44;100721.31;4938672;28;97479;-77
2022/10/29 01:58:12;;;;;;;15.27;8.65;;;;;;;15.40;65.76;100734.75;4955135;28;101365;-79
2022/10/29 02:00:50;;;;;;;16.70;7.93;;;;;;;15.44;65.65;100744.25;4955790;28;97002;-77
2022/10/29 02:03:46;;;;;;;13.02;7.50;;;;;;;15.45;65.57;100727.47;4957034;28;97001;-77
2022/10/29 02:06:30;;;;;;;12.70;7.13;;;;;;;15.47;65.60;100730.88;4952823;28;101900;-77
2022/10/29 02:09:01;;;;;;;14.52;7.10;;;;;;;15.43;65.78;100731.13;4938690;28;101295;-77
2022/10/29 02:11:33;;;;;;;;;;;;;;;15.43;65.98;100733.75;4955592;28;96766;-78
2022/10/29 02:14:04;;;;;;;11.95;7.18;;;;;;;15.38;65.95;100726.88;4956430;28;96927;-78
2022/10/29 02:16:30;;;;;;;13.97;7.23;;;;;;;15.44;65.82;100716.94;4950700;28;101676;-77
2022/10/29 02:18:56;;;;;;;17.17;8.00;;;;;;;15.44;65.89;100719.59;4952543;28;97362;-80
2022/10/29 02:21:22;;;;;;;11.25;6.88;;;;;;;15.41;65.75;100710.00;4952875;28;97139;-77
2022/10/29 02:23:48;;;;;;;11.35;7.40;;;;;;;15.35;65.85;100690.00;4940749;28;96872;-78
2022/10/29 02:26:14;;;;;;;18.20;7.97;;;;;;;15.45;65.69;100708.94;4939321;28;101467;-78
2022/10/29 02:28:40;;;;;;;16.58;7.97;;;;;;;15.43;66.04;100713.44;4972717;28;97853;-79
2022/10/29 02:31:06;;;;;;;16.98;8.05;;;;;;;15.35;66.07;100699.72;4938041;28;97483;-83
2022/10/29 02:33:31;;;;;;;14.32;7.03;;;;;;;15.38;66.05;100707.50;4959485;28;98123;-79
2022/10/29 02:35:57;;;;;;;11.35;6.65;;;;;;;15.38;66.28;100699.56;4940042;28;101144;-77
2022/10/29 02:38:22;;;;;;;12.25;6.72;;;;;;;15.40;66.24;100701.22;4936402;28;101025;-77
2022/10/29 02:40:48;;;;;;;11.75;7.57;;;;;;;15.45;66.16;100702.81;4957198;28;97437;-77
2022/10/29 02:43:13;;;;;;;13.75;7.82;;;;;;;15.38;66.08;100689.84;4940025;28;96845;-78
2022/10/29 02:45:39;;;;;;;10.40;6.65;;;;;;;15.31;66.16;100680.50;4923889;28;101393;-77
2022/10/29 02:48:05;;;;;;;10.02;6.78;;;;;;;15.38;66.18;100689.84;4956518;28;98496;-78
2022/10/29 02:50:30;;;;;;;12.77;7.20;;;;;;;15.41;66.21;100686.19;4955627;28;96862;-79
2022/10/29 02:52:56;;;;;;;14.05;7.65;;;;;;;15.39;66.24;100691.56;4972843;28;96830;-77
2022/10/29 02:55:21;;;;;;;16.23;7.35;;;;;;;15.33;66.40;100676.00;4937352;28;101176;-77
2022/10/29 02:57:47;;;;;;;14.88;7.45;;;;;;;15.45;66.03;100694.88;4950519;28;97973;-77
2022/10/29 03:00:13;;;;;;;15.07;7.22;;;;;;;15.38;66.08;100681.91;4940536;28;96762;-77
2022/10/29 03:02:39;;;;;;;12.73;7.18;;;;;;;15.37;66.20;100687.28;4940021;28;97177;-77
2022/10/29 03:05:05;;;;;;;9.80;6.78;;;;;;;15.36;66.25;100686.44;4938758;28;101353;-77
2022/10/29 03:07:35;;;;;;;10.55;6.18;;;;;;;15.45;65.94;100694.88;4922129;28;101440;-78
2022/10/29 03:10:06;;;;;;;12.27;6.57;;;;;;;15.39;66.16;100694.22;4954873;28;96760;-79
2022/10/29 03:12:31;;;;;;;11.88;7.28;;;;;;;15.39;66.47;100690.72;4960893;28;97085;-78
2022/10/29 03:14:57;;;;;;;12.55;6.47;;;;;;;15.37;66.41;100695.22;4931893;28;100746;-77
2022/10/29 03:17:22;;;;;;;15.38;7.18;;;;;;;15.39;66.33;100696.03;4952473;28;98009;-77
2022/10/29 03:19:48;;;;;;;11.90;6.50;;;;;;;15.38;66.72;100689.00;4959472;28;98653;-77
2022/10/29 03:22:14;;;;;;;13.82;6.60;;;;;;;15.42;66.49;100701.16;4958934;28;97265;-78
2022/10/29 03:24:39;;;;;;;12.93;7.30;;;;;;;15.37;66.64;100690.78;4969264;28;97497;-77
2022/10/29 03:27:05;;;;;;;13.05;6.53;;;;;;;15.47;66.20;100704.41;4921823;28;101653;-78
2022/10/29 03:29:30;;;;;;;13.23;5.68;;;;;;;15.55;66.04;100706.69;4948957;28;97388;-77
2022/10/29 03:31:56;;;;;;;12.38;4.95;;;;;;;15.55;66.02;100701.41;4924826;28;97160;-77
2022/10/29 03:34:21;;;;;;;14.80;5.75;;;;;;;15.60;65.85;100710.84;4950559;28;101536;-77
2022/10/29 03:36:47;;;;;;;15.55;5.97;;;;;;;15.60;65.94;100710.00;4945099;28;97975;-77
2022/10/29 03:39:13;;;;;;;13.10;6.82;;;;;;;15.60;65.97;100710.84;4919096;28;97363;-78
2022/10/29 03:41:38;;;;;;;15.45;7.78;;;;;;;15.61;65.68;100699.31;4938113;28;100265;-77
2022/10/29 03:44:04;;;;;;;17.85;7.55;;;;;;;15.70;65.40;100708.63;4935379;28;97542;-77
2022/10/29 03:46:29;;;;;;;14.20;7.63;;;;;;;15.68;65.89;100706.97;4956755;28;101313;-77
2022/10/29 03:48:55;;;;;;;10.27;6.43;;;;;;;15.69;65.56;100717.50;4939700;28;97787;-77
2022/10/29 03:51:21;;;;;;;16.63;6.88;;;;;;;15.72;65.62;100713.84;4948215;28;97425;-77
2022/10/29 03:53:46;;;;;;;14.55;5.43;;;;;;;15.65;65.53;100702.69;4968545;28;100792;-77
2022/10/29 03:56:12;;;;;;;8.88;5.07;;;;;;;15.72;65.13;100698.81;4937032;28;101372;-80
2022/10/29 03:58:37;;;;;;;9.57;4.95;;;;;;;15.73;65.33;100703.19;4923019;28;96845;-78
2022/10/29 04:01:05;;;;;;;11.23;5.05;;;;;;;15.81;64.94;100711.59;4955823;28;96914;-79
2022/10/29 04:03:32;;;;;;;8.77;5.30;;;;;;;15.75;64.96;100695.19;4938737;28;101315;-78
2022/10/29 04:05:59;;;;;;;12.55;4.22;;;;;;;15.80;65.36;100720.50;4951974;28;101567;-77
2022/10/29 04:08:25;;;;;;;10.95;4.72;;;;;;;15.80;65.01;100719.63;4962017;28;97080;-80
2022/10/29 04:10:50;;;;;;;15.10;4.55;;;;;;;15.63;65.00;100700.09;4967642;28;97405;-78
2022/10/29 04:13:17;;;;;;;16.50;6.30;;;;;;;15.80;65.09;100724.94;4955207;28;101222;-79
2022/10/29 04:15:42;;;;;;;9.25;4.60;;;;;;;15.73;65.23;100729.66;4970480;28;98020;-78
2022/10/29 04:18:08;;;;;;;14.60;5.40;;;;;;;15.74;65.20;100731.38;4954236;28;97072;-77
2022/10/29 04:20:35;;;;;;;17.23;6.30;;;;;;;15.73;64.91;100718.22;4922601;28;96864;-78
2022/10/29 04:23:00;;;;;;;17.92;5.78;;;;;;;15.82;64.92;100736.28;4938890;28;101142;-77
2022/10/29 04:25:26;;;;;;;19.27;6.93;;;;;;;15.76;64.89;100740.06;4972703;28;97360;-77
2022/10/29 04:27:55;;;;;;;16.60;5.97;;;;;;;15.78;64.78;100750.59;4938598;28;96883;-77
2022/10/29 04:30:24;;;;;;;19.92;6.80;;;;;;;15.76;64.93;100752.47;4954694;28;97452;-78
2022/10/29 04:32:49;;;;;;;17.33;5.53;;;;;;;15.75;65.18;100753.41;4954574;28;98135;-77
2022/10/29 04:35:15;;;;;;;11.20;5.50;;;;;;;15.68;65.20;100744.03;4947853;28;101136;-78
2022/10/29 04:37:41;;;;;;;11.10;5.50;;;;;;;15.71;65.20;100763.28;4967964;28;96804;-78
2022/10/29 04:40:07;;;;;;;15.43;5.97;;;;;;;15.72;65.09;100762.34;4945980;28;96960;-78
2022/10/29 04:42:36;;;;;;;11.70;5.35;;;;;;;15.71;65.05;100762.44;4934748;28;101647;-78
2022/10/29 04:45:03;;;;;;;14.00;5.45;;;;;;;15.68;65.11;100759.91;4960344;28;97628;-78
2022/10/29 04:47:29;;;;;;;11.13;5.25;;;;;;;15.57;65.52;100758.63;4952397;28;97832;-77
2022/10/29 04:49:54;;;;;;;11.85;5.32;;;;;;;15.59;65.48;100766.47;4938967;28;97083;-77
2022/10/29 04:52:20;;;;;;;16.13;5.20;;;;;;;15.60;65.40;100774.34;4937357;28;101579;-77
2022/10/29 04:54:45;;;;;;;11.75;5.45;;;;;;;15.59;65.41;100777.94;4938368;28;101436;-77
2022/10/29 04:57:11;;;;;;;11.23;5.43;;;;;;;15.56;65.72;100774.56;4965129;28;96772;-83
2022/10/29 04:59:36;;;;;;;14.85;5.40;;;;;;;15.52;65.78;100773.84;4964150;28;97191;-78
2022/10/29 05:02:02;;;;;;;11.93;5.10;;;;;;;15.51;65.56;100772.16;4938415;28;101015;-77
2022/10/29 05:04:28;;;;;;;9.93;5.63;;;;;;;15.51;65.58;100776.59;4947002;28;97588;-78
2022/10/29 05:06:54;;;;;;;10.40;5.28;;;;;;;15.38;65.85;100766.56;4957270;28;97047;-82
2022/10/29 05:09:20;;;;;;;12.23;5.13;;;;;;;15.38;65.67;100755.97;4947669;28;97006;-77
2022/10/29 05:11:45;;;;;;;11.93;4.82;;;;;;;15.49;65.26;100787.22;4939083;28;98037;-78
2022/10/29 05:14:11;;;;;;;9.45;4.70;;;;;;;15.42;65.38;100779.63;4957758;28;97303;-78
2022/10/29 05:16:36;;;;;;;11.95;4.80;;;;;;;15.44;65.66;100778.63;4953990;28;97324;-78
2022/10/29 05:19:03;;;;;;;11.15;4.82;;;;;;;15.47;65.53;100794.38;4974541;28;96832;-78
2022/10/29 05:21:29;;;;;;;10.38;4.43;;;;;;;15.43;65.35;100782.22;4952530;28;97740;-78
2022/10/29 05:23:55;;;;;;;14.52;5.68;;;;;;;15.28;65.30;100759.16;4961774;28;101319;-77
2022/10/29 05:26:20;;;;;;;10.43;5.60;;;;;;;15.43;65.53;100786.66;4955638;28;97080;-77
2022/10/29 05:28:49;;;;;;;17.00;5.47;;;;;;;15.40;65.68;100785.88;4953775;28;98340;-79
2022/10/29 05:31:14;;;;;;;7.80;4.38;;;;;;;15.44;65.50;100799.81;4928508;28;101500;-82
2022/10/29 05:33:40;;;;;;;14.60;4.82;;;;;;;15.43;65.74;100806.03;4937587;28;101203;-77
2022/10/29 05:36:05;;;;;;;9.05;4.78;;;;;;;15.40;65.45;100808.81;4958505;28;97412;-77
2022/10/29 05:38:31;;;;;;;19.38;5.18;;;;;;;15.38;65.58;100815.97;4948647;28;97343;-80
2022/10/29 05:40:58;;;;;;;15.20;6.53;;;;;;;15.29;65.70;100806.66;4938712;28;101115;-77
2022/10/29 05:43:23;;;;;;;10.40;4.97;;;;;;;15.37;65.51;100808.97;4945611;28;101459;-78
2022/10/29 05:45:49;;;;;;;9.70;4.70;;;;;;;15.31;65.54;100804.81;4954011;28;97185;-78
2022/10/29 05:48:15;;;;;;;13.82;5.60;;;;;;;15.21;65.75;100781.50;4955740;28;97235;-84
2022/10/29 05:50:40;;;;;;;15.52;5.57;;;;;;;15.36;66.08;100820.50;4954719;28;101012;-77
2022/10/29 05:53:08;;;;;;;10.88;5.60;;;;;;;15.39;65.58;100826.47;4938218;28;101867;-82
2022/10/29 05:55:34;;;;;;;11.98;5.85;;;;;;;15.37;65.56;100825.69;4939016;28;97133;-77
2022/10/29 05:58:09;;;;;;;12.27;5.10;;;;;;;15.39;65.64;100825.63;4939768;28;100086;-77
2022/10/29 06:00:37;;;;;;;15.38;5.68;;;;;;;15.44;65.82;100828.03;4956272;28;97687;-79
2022/10/29 06:03:03;;;;;;;13.45;5.15;;;;;;;15.44;65.32;100826.25;4936767;28;101390;-77
2022/10/29 06:05:29;;;;;;;17.75;6.13;;;;;;;15.44;65.78;100823.59;4952572;28;97205;-79
2022/10/29 06:07:59;;;;;;;18.65;6.35;;;;;;;15.49;65.57;100831.34;4943984;28;97206;-77
2022/10/29 06:10:26;;;;;;;15.00;5.88;;;;;;;15.50;65.40;100833.06;4951191;28;101976;-77
2022/10/29 06:12:52;;;;;;;19.02;7.10;;;;;;;15.52;65.31;100826.75;4963015;28;98011;-78
2022/10/29 06:15:18;;;;;;;18.48;6.53;;;;;;;15.53;65.56;100832.91;4924348;28;96869;-78
2022/10/29 06:17:45;;;;;;;16.10;8.27;;;;;;;15.57;65.50;100823.91;4954117;28;96971;-77
2022/10/29 06:20:12;;;;;;;17.50;7.50;;;;;;;15.56;65.42;100820.41;4951958;28;101749;-77
2022/10/29 06:22:38;;;;;;;17.42;7.95;;;;;;;15.70;65.35;100837.44;4958078;28;102522;-77
2022/10/29 06:25:04;;;;;;;11.95;6.53;;;;;;;15.72;65.52;100832.94;4922789;28;97233;-77
2022/10/29 06:27:29;;;;;;;19.60;8.20;;;;;;;15.81;65.47;100851.88;4940214;28;97670;-77
2022/10/29 06:29:55;;;;;;;16.75;7.05;;;;;;;15.83;65.62;100843.91;4949280;28;97589;-77
2022/10/29 06:32:20;;;;;;;15.38;6.38;;;;;;;15.84;65.24;100838.50;4944128;28;97635;-78
2022/10/29 06:34:46;;;;;;;11.02;5.88;;;;;;;15.88;65.40;100843.66;4951541;28;98282;-77
2022/10/29 06:37:11;;;;;;;11.10;5.75;;;;;;;15.91;65.38;100846.16;4951225;28;96903;-77
2022/10/29 06:39:37;;;;;;;12.82;5.03;;;;;;;15.89;65.33;100843.59;4974673;28;101429;-78
2022/10/29 06:42:03;;;;;;;11.10;5.47;;;;;;;15.88;65.20;100839.22;4931662;28;101617;-79
2022/10/29 06:44:28;;;;;;;9.68;5.72;;;;;;;16.00;65.13;100854.53;4943718;28;97204;-78
2022/10/29 06:46:54;;;;;;;15.23;6.28;;;;;;;15.98;65.09;100844.94;4970132;28;97035;-77
2022/10/29 06:49:20;;;;;;;12.93;6.28;;;;;;;16.06;65.36;100861.31;4964663;28;101115;-77
2022/10/29 06:51:46;;;;;;;15.05;7.22;;;;;;;16.11;65.05;100861.94;4962545;28;97421;-80
2022/10/29 06:54:12;;;;;;;15.88;7.65;;;;;;;16.05;65.18;100847.19;4938029;28;98201;-78
2022/10/29 06:56:37;;;;;;;12.25;7.22;;;;;;;16.17;65.31;100856.34;4933824;28;97229;-78
2022/10/29 06:59:03;;;;;;;15.95;6.13;;;;;;;16.15;64.93;100841.47;4931023;28;101818;-78
2022/10/29 07:01:31;;;;;;;10.82;6.00;;;;;;;16.30;64.86;100862.75;4953002;28;97872;-78
2022/10/29 07:04:00;;;;;;;13.57;5.93;;;;;;;16.38;64.94;100858.91;4923854;28;96818;-80
2022/10/29 07:06:26;;;;;;;15.52;6.25;;;;;;;16.51;64.95;100865.28;4944776;28;97297;-78
2022/10/29 07:08:51;;;;;;;12.43;6.20;;;;;;;16.83;64.36;100863.69;4957722;28;101747;-78
2022/10/29 07:11:17;;;;;;;11.82;6.43;;;;;;;17.14;64.07;100859.44;4952356;28;101617;-83
2022/10/29 07:13:42;;;;;;;18.63;6.60;;;;;;;17.53;63.36;100864.38;4922412;28;96825;-78
2022/10/29 07:16:08;;;;;;;22.15;6.25;;;;;;;17.84;62.69;100862.75;4955572;28;97074;-77
2022/10/29 07:18:33;;;;;;;13.85;5.88;;;;;;;18.09;61.95;100860.44;4942071;28;100966;-79
2022/10/29 07:21:01;;;;;;;12.48;6.10;;;;;;;18.27;61.47;100865.63;4964625;28;101390;-79
2022/10/29 07:23:27;;;;;;;11.25;5.63;;;;;;;18.50;61.19;100862.50;4965962;28;97300;-77
2022/10/29 07:25:52;;;;;;;12.30;6.05;;;;;;;18.72;60.96;100856.75;4934422;28;97116;-78
2022/10/29 07:28:22;;;;;;;11.10;6.25;;;;;;;18.77;60.59;100861.84;4951235;28;101251;-82
2022/10/29 07:30:49;;;;;;;11.80;6.05;;;;;;;18.69;60.60;100856.94;4953389;28;97888;-78
2022/10/29 07:33:16;;;;;;;15.05;6.28;;;;;;;18.71;60.61;100863.03;4923815;28;97384;-80
2022/10/29 07:35:42;;;;;;;19.15;6.05;;;;;;;18.68;60.66;100870.34;4950463;28;97215;-79
2022/10/29 07:38:09;;;;;;;12.60;5.53;;;;;;;18.59;61.15;100868.19;4938145;28;101699;-82
2022/10/29 07:40:35;;;;;;;11.30;4.93;;;;;;;18.52;61.18;100868.56;4958369;28;98433;-78
2022/10/29 07:43:00;;;;;;;19.30;5.47;;;;;;;18.43;61.49;100861.13;4944895;28;97408;-79
2022/10/29 07:45:26;;;;;;;12.57;4.72;;;;;;;18.40;61.47;100853.34;4932977;28;97342;-80
2022/10/29 07:47:59;;;;;;;13.63;5.30;;;;;;;18.40;61.40;100840.03;4919254;28;101185;-79
2022/10/29 07:50:26;;;;;;;14.43;5.45;;;;;;;18.45;61.71;100851.28;4954256;28;101078;-78
2022/10/29 07:52:52;;;;;;;11.15;4.95;;;;;;;18.34;61.69;100848.38;4971960;28;97164;-79
2022/10/29 07:55:17;;;;;;;16.50;5.40;;;;;;;18.36;61.72;100843.84;4929472;28;97054;-80
2022/10/29 07:57:43;;;;;;;15.07;5.05;;;;;;;18.46;61.79;100860.94;4932070;28;97905;-79
2022/10/29 08:00:11;;;;;;;11.90;5.22;;;;;;;18.59;61.90;100863.75;4942837;28;97950;-80
2022/10/29 08:02:41;;;;;;;11.20;5.35;;;;;;;18.87;61.43;100846.19;4953612;28;97103;-78
2022/10/29 08:05:07;;;;;;;12.30;4.63;;;;;;;19.27;60.62;100838.44;4938972;28;96987;-78
2022/10/29 08:07:33;;;;;;;14.57;5.00;;;;;;;19.55;60.34;100870.38;4952817;28;100861;-78
2022/10/29 08:09:58;;;;;;;12.80;4.70;;;;;;;19.55;60.26;100861.53;4953909;28;101317;-80
2022/10/29 08:12:24;;;;;;;13.27;5.25;;;;;;;19.51;60.23;100865.31;4920953;28;97008;-78
2022/10/29 08:14:50;;;;;;;13.32;4.80;;;;;;;19.55;60.20;100870.38;4921056;28;96894;-77
2022/10/29 08:17:15;;;;;;;14.05;5.30;;;;;;;19.86;59.74;100866.63;4951880;28;98634;-77
2022/10/29 08:19:41;;;;;;;12.30;4.78;;;;;;;20.14;59.26;100859.50;4973740;28;101821;-77
2022/10/29 08:22:06;;;;;;;12.02;3.92;;;;;;;20.29;58.62;100857.66;4937168;28;96665;-79
2022/10/29 08:24:32;;;;;;;11.40;4.03;;;;;;;20.21;58.81;100843.97;4969298;28;97448;-77
2022/10/29 08:26:57;;;;;;;17.33;5.00;;;;;;;20.39;58.50;100865.88;4947091;28;101435;-77
2022/10/29 08:29:23;;;;;;;12.45;4.82;;;;;;;20.45;58.34;100868.13;4955205;28;101226;-83
2022/10/29 08:31:48;;;;;;;16.55;4.68;;;;;;;20.45;58.91;100868.13;4968219;28;97232;-79
2022/10/29 08:34:14;;;;;;;14.45;4.30;;;;;;;20.28;59.10;100856.78;4951993;28;97656;-78
2022/10/29 08:36:40;;;;;;;12.38;4.35;;;;;;;20.29;58.67;100860.31;4968440;28;97628;-77
2022/10/29 08:39:05;;;;;;;11.05;4.50;;;;;;;20.33;58.69;100878.69;4938180;28;97745;-79
2022/10/29 08:41:44;;;;;;;11.30;4.28;;;;;;;20.71;58.04;100880.63;4951430;28;97355;-80
2022/10/29 08:44:18;;;;;;;8.27;4.30;;;;;;;21.16;57.27;100870.41;4947786;28;96898;-83
2022/10/29 08:46:57;;;;;;;13.85;4.78;;;;;;;21.39;56.45;100863.50;4949026;28;98027;-81
2022/10/29 08:49:44;;;;;;;11.15;5.20;;;;;;;21.52;55.55;100850.09;4956405;28;97992;-81
2022/10/29 08:52:19;;;;;;;14.52;4.75;;;;;;;21.74;55.09;100846.75;4955960;28;97224;-81
2022/10/29 08:54:51;;;;;;;10.93;4.07;;;;;;;22.45;54.31;100869.16;4951163;28;97983;-81
2022/10/29 08:57:19;;;;;;;16.88;5.20;;;;;;;22.87;53.17;100874.91;4932096;28;101548;-81
2022/10/29 09:00:07;;;;;;;14.68;4.88;;;;;;;23.05;52.49;100876.19;4942382;28;101232;-80
2022/10/29 09:02:33;;;;;;;11.10;4.38;;;;;;;22.84;52.94;100869.78;4943296;28;97082;-80
2022/10/29 09:05:00;;;;;;;7.90;4.50;;;;;;;22.63;53.04;100871.41;4956293;28;98372;-80
2022/10/29 09:07:38;;;;;;;9.23;4.10;;;;;;;22.51;53.15;100868.69;4945025;28;99125;-81
2022/10/29 09:10:20;;;;;;;10.93;4.32;;;;;;;22.35;53.19;100866.31;4946852;28;101034;-82
2022/10/29 09:13:07;;;;;;;11.48;4.10;;;;;;;22.50;52.83;100875.00;4963019;28;97243;-81
2022/10/29 09:15:40;;;;;;;10.30;3.70;;;;;;;22.96;52.04;100881.41;4953799;28;97311;-78
2022/10/29 09:18:30;;;;;;;16.23;4.38;;;;;;;23.41;51.21;100871.56;4947825;28;100518;-83
2022/10/29 09:21:17;;;;;;;10.00;4.27;;;;;;;23.90;50.42;100877.53;4962676;28;97957;-79
2022/10/29 09:24:28;;;;;;;12.68;4.55;;;;;;;24.29;50.24;100872.53;4952939;28;96935;-78
2022/10/29 09:27:05;;;;;;;9.10;4.05;;;;;;;24.68;49.10;100859.50;4919225;28;97054;-77
2022/10/29 09:29:49;;;;;;;9.23;4.38;;;;;;;25.10;48.42;100879.13;4935125;28;101836;-76
2022/10/29 09:32:30;;;;;;;13.02;3.70;;;;;;;25.20;48.36;100852.34;4963902;28;101809;-78
2022/10/29 09:35:00;;;;;;;8.98;4.20;;;;;;;25.38;47.64;100850.72;4934642;28;98151;-77
2022/10/29 09:37:47;;;;;;;10.25;4.05;;;;;;;25.72;46.98;100861.19;4919382;28;97214;-79
2022/10/29 09:40:35;;;;;;;8.60;3.72;;;;;;;25.89;46.19;100860.56;4947991;28;101192;-78
2022/10/29 09:43:06;;;;;;;9.65;3.95;;;;;;;25.82;46.21;100848.63;4952158;28;98543;-77
2022/10/29 09:45:42;;;;;;;15.27;4.15;;;;;;;25.52;46.56;100853.06;4936409;28;97146;-78
2022/10/29 09:48:16;;;;;;;14.05;3.55;;;;;;;25.37;46.69;100862.47;4937052;28;97273;-79
2022/10/29 09:50:57;;;;;;;10.60;3.20;;;;;;;25.20;47.05;100863.94;4937722;28;101912;-78
2022/10/29 09:53:23;;;;;;;11.52;3.28;;;;;;;24.84;47.83;100850.00;4958828;28;101867;-81
2022/10/29 09:55:52;;;;;;;12.73;4.10;;;;;;;24.54;48.15;100855.28;4965842;28;97212;-81
2022/10/29 09:58:26;;;;;;;12.77;3.17;;;;;;;24.45;48.16;100854.22;4961203;28;97521;-81
2022/10/29 10:00:53;;;;;;;12.93;3.42;;;;;;;24.42;48.53;100857.16;4950021;28;101378;-81
2022/10/29 10:03:37;;;;;;;12.02;2.58;;;;;;;24.36;48.85;100858.50;4935979;28;98030;-81
2022/10/29 10:06:05;;;;;;;8.13;2.65;;;;;;;24.21;49.31;100851.75;4942538;28;96748;-82
2022/10/29 10:08:32;;;;;;;9.65;2.50;;;;;;;24.06;49.30;100839.63;4954390;28;97058;-81
2022/10/29 10:11:00;;;;;;;7.72;2.75;;;;;;;23.88;49.54;100853.56;4950051;28;98170;-83
2022/10/29 10:13:29;;;;;;;7.20;3.08;;;;;;;23.90;49.02;100856.09;4940931;28;100968;-82
2022/10/29 10:15:57;;;;;;;13.40;3.47;;;;;;;23.67;49.91;100848.06;4955960;28;96944;-82
2022/10/29 10:18:27;;;;;;;17.02;4.55;;;;;;;23.62;50.09;100836.00;4952062;28;98146;-81
2022/10/29 10:21:06;;;;;;;12.23;2.90;;;;;;;23.88;49.97;100850.88;4953922;28;101386;-79
2022/10/29 10:23:44;;;;;;;10.07;3.10;;;;;;;24.01;49.46;100829.25;4964957;28;101832;-79
2022/10/29 10:26:30;;;;;;;8.10;3.30;;;;;;;24.16;49.02;100836.03;4950213;28;98188;-79
2022/10/29 10:29:09;;;;;;;8.90;3.13;;;;;;;24.13;49.00;100830.91;4932164;28;97567;-80
2022/10/29 10:31:35;;;;;;;6.13;2.67;;;;;;;24.13;49.27;100835.44;4949205;28;101434;-80
2022/10/29 10:34:08;;;;;;;13.80;3.28;;;;;;;24.06;49.43;100819.00;4937777;28;98106;-79
2022/10/29 10:36:38;;;;;;;8.20;3.10;;;;;;;24.08;49.20;100817.03;4948646;28;97474;-80
2022/10/29 10:39:03;;;;;;;7.17;3.00;;;;;;;24.07;49.25;100820.69;4952606;28;97314;-79
2022/10/29 10:41:31;;;;;;;10.18;3.38;;;;;;;24.13;49.36;100822.03;4919186;28;102251;-79
2022/10/29 10:43:59;;;;;;;6.28;2.63;;;;;;;24.08;49.04;100822.41;4968665;28;97996;-80
2022/10/29 10:46:33;;;;;;;13.20;4.00;;;;;;;23.96;48.88;100815.38;4932793;28;96995;-82
2022/10/29 10:49:04;;;;;;;10.02;3.22;;;;;;;23.93;49.11;100815.63;4934336;28;97033;-79
2022/10/29 10:51:33;;;;;;;;;;;;;;;23.76;49.95;100821.53;4970726;28;98062;-79
2022/10/29 10:54:00;;;;;;;8.50;3.13;;;;;;;23.76;50.38;100813.47;4949083;28;98315;-81
2022/10/29 10:56:26;;;;;;;6.75;3.30;;;;;;;23.70;50.51;100818.34;4935687;28;97304;-80
2022/10/29 10:59:01;;;;;;;6.03;2.97;;;;;;;23.63;50.44;100811.78;4936460;28;97468;-79
2022/10/29 11:01:36;;;;;;;8.23;3.10;;;;;;;23.48;50.32;100803.16;4958117;28;101941;-80
2022/10/29 11:04:15;;;;;;;7.55;3.40;;;;;;;23.47;50.27;100819.34;4928583;28;100993;-80
2022/10/29 11:06:44;;;;;;;12.52;2.85;;;;;;;23.37;50.66;100815.69;4916583;28;98267;-81
2022/10/29 11:09:20;;;;;;;5.93;3.05;;;;;;;23.28;50.92;100810.09;4968070;28;96889;-81
2022/10/29 11:11:54;;;;;;;11.18;3.10;;;;;;;23.25;51.46;100807.66;4966402;28;97799;-80
2022/10/29 11:15:05;;;;;;;6.43;3.65;;;;;;;23.21;52.32;100803.53;4937253;28;101706;-78
2022/10/29 11:17:37;;;;;;;9.27;3.00;;;;;;;23.21;52.78;100808.91;4965002;28;97024;-78
2022/10/29 11:20:17;;;;;;;6.65;3.20;;;;;;;23.13;52.69;100786.38;4973026;28;97315;-80
2022/10/29 11:23:01;;;;;;;8.00;3.30;;;;;;;23.22;52.29;100805.25;4934582;28;101837;-80
2022/10/29 11:25:33;;;;;;;10.35;3.70;;;;;;;23.18;52.85;100803.75;4945071;28;101495;-79
2022/10/29 11:28:18;;;;;;;8.77;3.13;;;;;;;23.25;52.86;100805.00;4952342;28;97359;-81